Time;durP1;ratioP1;P1;durP2;ratioP2;P2;SDS_P1;SDS_P2;PMS_P1;PMS_P2;Temp;Humidity;BMP_temperature;BMP_pressure;BME280_temperature;BME280_humidity;BME280_pressure;Samples;Min_cycle;Max_cycle;Signal;HPM_P1;HPM_P2
2022/08/05 00:00:31;;;;;;;;;;;;;;;;;;5054917;28;19956;-73
2022/08/05 00:02:58;;;;;;;;;;;;;;;;;;5054939;28;19935;-73
2022/08/05 00:05:24;;;;;;;;;;;;;;;;;;5054675;28;19925;-72
2022/08/05 00:08:10;;;;;;;;;;;;;;;;;;5054625;28;19931;-73
2022/08/05 00:10:57;;;;;;;;;;;;;;;;;;5054618;28;20071;-73
2022/08/05 00:13:25;;;;;;;;;;;;;;;;;;5054752;28;20373;-73
2022/08/05 00:16:04;;;;;;;;;;;;;;;;;;5054596;28;19931;-73
2022/08/05 00:18:31;;;;;;;;;;;;;;;;;;5054519;28;20381;-73
2022/08/05 00:20:57;;;;;;;;;;;;;;;;;;5054594;28;19925;-73
2022/08/05 00:23:23;;;;;;;;;;;;;;;;;;5054427;28;20335;-73
2022/08/05 00:26:10;;;;;;;;;;;;;;;;;;5054656;28;19971;-73
2022/08/05 00:28:36;;;;;;;;;;;;;;;;;;5054557;28;19967;-73
2022/08/05 00:31:02;;;;;;;;;;;;;;;;;;5054502;28;19928;-73
2022/08/05 00:33:29;;;;;;;;;;;;;;;;;;5054414;28;19978;-73
2022/08/05 00:36:16;;;;;;;;;;;;;;;;;;5054155;28;19960;-73
2022/08/05 00:39:02;;;;;;;;;;;;;;;;;;5054731;28;20011;-73
2022/08/05 00:41:28;;;;;;;;;;;;;;;;;;5054316;28;19975;-73
2022/08/05 00:44:15;;;;;;;;;;;;;;;;;;5054256;28;20015;-72
2022/08/05 00:46:41;;;;;;;;;;;;;;;;;;5046348;28;19929;-73
2022/08/05 00:49:08;;;;;;;;;;;;;;;;;;5047871;28;19943;-73
2022/08/05 00:51:35;;;;;;;;;;;;;;;;;;5053592;28;19921;-72
2022/08/05 00:54:17;;;;;;;;;;;;;;;;;;5053829;28;19927;-73
2022/08/05 00:56:43;;;;;;;;;;;;;;;;;;5053974;28;19925;-73
2022/08/05 00:59:16;;;;;;;;;;;;;;;;;;5053978;28;19964;-73
2022/08/05 01:01:42;;;;;;;;;;;;;;;;;;5053741;28;19965;-73
2022/08/05 01:04:13;;;;;;;;;;;;;;;;;;5053934;28;20376;-72
2022/08/05 01:06:41;;;;;;;;;;;;;;;;;;5053526;28;19920;-72
2022/08/05 01:09:08;;;;;;;;;;;;;;;;;;5053567;28;19925;-73
2022/08/05 01:11:35;;;;;;;;;;;;;;;;;;5051277;28;19967;-73
2022/08/05 01:14:03;;;;;;;;;;;;;;;;;;5052230;28;19964;-73
2022/08/05 01:16:29;;;;;;;;;;;;;;;;;;5053799;28;19990;-73
2022/08/05 01:18:55;;;;;;;;;;;;;;;;;;5053486;28;19990;-73
2022/08/05 01:21:24;;;;;;;;;;;;;;;;;;5053735;28;19932;-74
2022/08/05 01:23:50;;;;;;;;;;;;;;;;;;5052285;28;19967;-73
2022/08/05 01:26:18;;;;;;;;;;;;;;;;;;5053443;28;19925;-73
2022/08/05 01:28:45;;;;;;;;;;;;;;;;;;5053236;28;19964;-73
2022/08/05 01:31:11;;;;;;;;;;;;;;;;;;5053101;28;19921;-73
2022/08/05 01:33:37;;;;;;;;;;;;;;;;;;5053369;28;19960;-73
2022/08/05 01:36:04;;;;;;;;;;;;;;;;;;5052969;28;20404;-73
2022/08/05 01:38:30;;;;;;;;;;;;;;;;;;5053097;28;19978;-73
2022/08/05 01:40:56;;;;;;;;;;;;;;;;;;5053322;28;19970;-74
2022/08/05 01:43:23;;;;;;;;;;;;;;;;;;5052813;28;20373;-73
2022/08/05 01:45:49;;;;;;;;;;;;;;;;;;5052651;28;20918;-73
2022/08/05 01:48:21;;;;;;;;;;;;;;;;;;5053063;28;19921;-73
2022/08/05 01:50:47;;;;;;;;;;;;;;;;;;5053068;28;19921;-74
2022/08/05 01:53:16;;;;;;;;;;;;;;;;;;5052653;28;19920;-73
2022/08/05 01:55:42;;;;;;;;;;;;;;;;;;5052956;28;19929;-74
2022/08/05 01:58:08;;;;;;;;;;;;;;;;;;5051239;28;20403;-72
2022/08/05 02:00:40;;;;;;;;;;;;;;;;;;5052518;28;19970;-73
2022/08/05 02:03:07;;;;;;;;;;;;;;;;;;5051451;28;19972;-73
2022/08/05 02:05:49;;;;;;;;;;;;;;;;;;5052668;28;19931;-72
2022/08/05 02:08:15;;;;;;;;;;;;;;;;;;5052642;28;19963;-73
2022/08/05 02:10:56;;;;;;;;;;;;;;;;;;5052511;28;19924;-72
2022/08/05 02:13:22;;;;;;;;;;;;;;;;;;5052542;28;19965;-73
2022/08/05 02:15:49;;;;;;;;;;;;;;;;;;5052327;28;20038;-73
2022/08/05 02:18:15;;;;;;;;;;;;;;;;;;5052404;28;19924;-73
2022/08/05 02:20:57;;;;;;;;;;;;;;;;;;5052238;28;19924;-74
2022/08/05 02:23:24;;;;;;;;;;;;;;;;;;5052562;28;19920;-72
2022/08/05 02:25:50;;;;;;;;;;;;;;;;;;5052357;28;19957;-72
2022/08/05 02:28:17;;;;;;;;;;;;;;;;;;5052458;28;19991;-72
2022/08/05 02:30:54;;;;;;;;;;;;;;;;;;5052420;28;19921;-73
2022/08/05 02:33:21;;;;;;;;;;;;;;;;;;5052051;28;19928;-72
2022/08/05 02:35:49;;;;;;;;;;;;;;;;;;5051907;28;20403;-73
2022/08/05 02:38:22;;;;;;;;;;;;;;;;;;5052028;28;19925;-73
2022/08/05 02:40:53;;;;;;;;;;;;;;;;;;5051881;28;20376;-73
2022/08/05 02:43:19;;;;;;;;;;;;;;;;;;5052245;28;19974;-73
2022/08/05 02:45:45;;;;;;;;;;;;;;;;;;5051892;28;19975;-72
2022/08/05 02:48:18;;;;;;;;;;;;;;;;;;5052253;28;19954;-73
2022/08/05 02:50:46;;;;;;;;;;;;;;;;;;5052115;28;20376;-72
2022/08/05 02:53:12;;;;;;;;;;;;;;;;;;5051872;28;19921;-73
2022/08/05 02:55:45;;;;;;;;;;;;;;;;;;5051897;28;20325;-72
2022/08/05 02:58:20;;;;;;;;;;;;;;;;;;5051778;28;20331;-72
2022/08/05 03:00:47;;;;;;;;;;;;;;;;;;5051798;28;20498;-72
2022/08/05 03:03:13;;;;;;;;;;;;;;;;;;5051982;28;19972;-72
2022/08/05 03:05:40;;;;;;;;;;;;;;;;;;5051856;28;20380;-73
2022/08/05 03:08:26;;;;;;;;;;;;;;;;;;5051669;28;19930;-72
2022/08/05 03:10:55;;;;;;;;;;;;;;;;;;5051671;28;19956;-72
2022/08/05 03:13:41;;;;;;;;;;;;;;;;;;5051849;28;19927;-72
2022/08/05 03:16:16;;;;;;;;;;;;;;;;;;5051865;28;19924;-72
2022/08/05 03:18:42;;;;;;;;;;;;;;;;;;5051933;28;19964;-72
2022/08/05 03:21:09;;;;;;;;;;;;;;;;;;5053719;28;20308;-72
2022/08/05 03:23:35;;;;;;;;;;;;;;;;;;5055813;28;19970;-72
2022/08/05 03:26:01;;;;;;;;;;;;;;;;;;5055677;28;19971;-73
2022/08/05 03:28:48;;;;;;;;;;;;;;;;;;5049255;28;19925;-72
2022/08/05 03:31:14;;;;;;;;;;;;;;;;;;5055455;28;20056;-72
2022/08/05 03:33:51;;;;;;;;;;;;;;;;;;5055576;28;19955;-72
2022/08/05 03:36:18;;;;;;;;;;;;;;;;;;5055195;28;20337;-72
2022/08/05 03:38:54;;;;;;;;;;;;;;;;;;5055165;28;20303;-72
2022/08/05 03:41:21;;;;;;;;;;;;;;;;;;5055584;28;19928;-72
2022/08/05 03:43:48;;;;;;;;;;;;;;;;;;5055414;28;19930;-72
2022/08/05 03:46:35;;;;;;;;;;;;;;;;;;5055035;28;19925;-72
2022/08/05 03:49:01;;;;;;;;;;;;;;;;;;5055064;28;20298;-72
2022/08/05 03:51:27;;;;;;;;;;;;;;;;;;5054887;28;19921;-72
2022/08/05 03:54:14;;;;;;;;;;;;;;;;;;5055237;28;19925;-72
2022/08/05 03:57:00;;;;;;;;;;;;;;;;;;5054904;28;19920;-72
2022/08/05 03:59:26;;;;;;;;;;;;;;;;;;5055091;28;19970;-72
2022/08/05 04:01:54;;;;;;;;;;;;;;;;;;5055327;28;19921;-72
2022/08/05 04:04:24;;;;;;;;;;;;;;;;;;5054716;28;19921;-73
2022/08/05 04:06:51;;;;;;;;;;;;;;;;;;5054781;28;19921;-72
2022/08/05 04:09:18;;;;;;;;;;;;;;;;;;5054601;28;19921;-72
2022/08/05 04:11:45;;;;;;;;;;;;;;;;;;5054671;28;19955;-72
2022/08/05 04:14:16;;;;;;;;;;;;;;;;;;5054832;28;19920;-72
2022/08/05 04:16:43;;;;;;;;;;;;;;;;;;5054948;28;19928;-72
2022/08/05 04:19:09;;;;;;;;;;;;;;;;;;5054861;28;19924;-72
2022/08/05 04:21:35;;;;;;;;;;;;;;;;;;5054404;28;20366;-72
2022/08/05 04:24:22;;;;;;;;;;;;;;;;;;5054367;28;19921;-72
2022/08/05 04:26:48;;;;;;;;;;;;;;;;;;5054466;28;19968;-73
2022/08/05 04:29:14;;;;;;;;;;;;;;;;;;5054637;28;19967;-72
2022/08/05 04:31:41;;;;;;;;;;;;;;;;;;5053834;28;19968;-72
2022/08/05 04:34:07;;;;;;;;;;;;;;;;;;5054261;28;19928;-72
2022/08/05 04:36:54;;;;;;;;;;;;;;;;;;5053996;28;20368;-72
2022/08/05 04:39:20;;;;;;;;;;;;;;;;;;5054496;28;19920;-73
2022/08/05 04:41:47;;;;;;;;;;;;;;;;;;5054382;28;19920;-72
2022/08/05 04:44:13;;;;;;;;;;;;;;;;;;5054190;28;19936;-74
2022/08/05 04:46:39;;;;;;;;;;;;;;;;;;5053854;28;20372;-72
2022/08/05 04:49:06;;;;;;;;;;;;;;;;;;5053978;28;20372;-72
2022/08/05 04:51:39;;;;;;;;;;;;;;;;;;5054022;28;20372;-72
2022/08/05 04:54:05;;;;;;;;;;;;;;;;;;5053841;28;20391;-73
2022/08/05 04:56:32;;;;;;;;;;;;;;;;;;5053824;28;19956;-73
2022/08/05 04:59:02;;;;;;;;;;;;;;;;;;5053702;28;20343;-72
2022/08/05 05:01:48;;;;;;;;;;;;;;;;;;5054067;28;19921;-73
2022/08/05 05:04:33;;;;;;;;;;;;;;;;;;5054020;28;19948;-72
2022/08/05 05:07:00;;;;;;;;;;;;;;;;;;5053716;28;19925;-72
2022/08/05 05:09:26;;;;;;;;;;;;;;;;;;5053785;28;19990;-72
2022/08/05 05:11:52;;;;;;;;;;;;;;;;;;5053449;28;19982;-73
2022/08/05 05:14:23;;;;;;;;;;;;;;;;;;5053781;28;19971;-72
2022/08/05 05:16:53;;;;;;;;;;;;;;;;;;5053538;28;19928;-72
2022/08/05 05:19:19;;;;;;;;;;;;;;;;;;5053846;28;19924;-72
2022/08/05 05:21:48;;;;;;;;;;;;;;;;;;5053406;28;19928;-73
2022/08/05 05:24:15;;;;;;;;;;;;;;;;;;5053342;28;19928;-73
2022/08/05 05:26:42;;;;;;;;;;;;;;;;;;5053227;28;20380;-73
2022/08/05 05:29:11;;;;;;;;;;;;;;;;;;5053228;28;20262;-73
2022/08/05 05:31:40;;;;;;;;;;;;;;;;;;5053210;28;20348;-73
2022/08/05 05:34:05;;;;;;;;;;;;;;;;;;5053296;28;20004;-72
2022/08/05 05:36:31;;;;;;;;;;;;;;;;;;5053128;28;19982;-72
2022/08/05 05:38:58;;;;;;;;;;;;;;;;;;5053312;28;19960;-72
2022/08/05 05:41:24;;;;;;;;;;;;;;;;;;5053783;28;20404;-73
2022/08/05 05:43:50;;;;;;;;;;;;;;;;;;5052169;28;19925;-72
2022/08/05 05:46:23;;;;;;;;;;;;;;;;;;5052947;28;19927;-72
2022/08/05 05:48:50;;;;;;;;;;;;;;;;;;5052751;28;20452;-72
2022/08/05 05:51:16;;;;;;;;;;;;;;;;;;5051373;28;19978;-72
2022/08/05 05:53:42;;;;;;;;;;;;;;;;;;5052601;28;19943;-73
2022/08/05 05:56:19;;;;;;;;;;;;;;;;;;5053173;28;19927;-73
2022/08/05 05:58:51;;;;;;;;;;;;;;;;;;5053075;28;19929;-73
2022/08/05 06:01:17;;;;;;;;;;;;;;;;;;5052938;28;19974;-73
2022/08/05 06:03:44;;;;;;;;;;;;;;;;;;5052827;28;19929;-72
2022/08/05 06:06:26;;;;;;;;;;;;;;;;;;5052511;28;19925;-73
2022/08/05 06:08:56;;;;;;;;;;;;;;;;;;5052739;28;19927;-73
2022/08/05 06:11:22;;;;;;;;;;;;;;;;;;5052443;28;19968;-72
2022/08/05 06:13:49;;;;;;;;;;;;;;;;;;5052532;28;19972;-73
2022/08/05 06:16:19;;;;;;;;;;;;;;;;;;5052700;28;19941;-72
2022/08/05 06:18:56;;;;;;;;;;;;;;;;;;5053518;28;19999;-73
2022/08/05 06:21:22;;;;;;;;;;;;;;;;;;5052605;28;19928;-73
2022/08/05 06:23:48;;;;;;;;;;;;;;;;;;5052411;28;19975;-73
2022/08/05 06:26:17;;;;;;;;;;;;;;;;;;5052127;28;20353;-72
2022/08/05 06:28:46;;;;;;;;;;;;;;;;;;5052261;28;20272;-73
2022/08/05 06:31:12;;;;;;;;;;;;;;;;;;5052136;28;19964;-73
2022/08/05 06:33:43;;;;;;;;;;;;;;;;;;5052180;28;20439;-73
2022/08/05 06:36:29;;;;;;;;;;;;;;;;;;5051921;28;20391;-72
2022/08/05 06:39:15;;;;;;;;;;;;;;;;;;5052077;28;19931;-72
2022/08/05 06:41:42;;;;;;;;;;;;;;;;;;5052213;28;19920;-73
2022/08/05 06:44:08;;;;;;;;;;;;;;;;;;5052357;28;19951;-73
2022/08/05 06:46:34;;;;;;;;;;;;;;;;;;5052195;28;19963;-73
2022/08/05 06:49:01;;;;;;;;;;;;;;;;;;5051881;28;19959;-73
2022/08/05 06:51:27;;;;;;;;;;;;;;;;;;5051791;28;19978;-72
2022/08/05 06:53:55;;;;;;;;;;;;;;;;;;5052140;28;19929;-73
2022/08/05 06:56:21;;;;;;;;;;;;;;;;;;5054471;28;19967;-73
2022/08/05 06:58:51;;;;;;;;;;;;;;;;;;5056121;28;19975;-73
2022/08/05 07:01:18;;;;;;;;;;;;;;;;;;5056173;28;19978;-73
2022/08/05 07:03:46;;;;;;;;;;;;;;;;;;5055900;28;20396;-73
2022/08/05 07:06:12;;;;;;;;;;;;;;;;;;5056263;28;19921;-73
2022/08/05 07:08:40;;;;;;;;;;;;;;;;;;5055760;28;19975;-73
2022/08/05 07:11:07;;;;;;;;;;;;;;;;;;5056075;28;19920;-73
2022/08/05 07:19:29;;;;;;;;;;;;;;;;;;5055552;28;19935;-73
2022/08/05 07:22:15;;;;;;;;;;;;;;;;;;5055534;28;19925;-73
2022/08/05 07:24:42;;;;;;;;;;;;;;;;;;5055871;28;19925;-73
2022/08/05 07:27:09;;;;;;;;;;;;;;;;;;5055486;28;19921;-73
2022/08/05 07:29:35;;;;;;;;;;;;;;;;;;5055567;28;19996;-72
2022/08/05 07:32:21;;;;;;;;;;;;;;;;;;5055408;28;19924;-73
2022/08/05 07:34:52;;;;;;;;;;;;;;;;;;5055633;28;19920;-72
2022/08/05 07:37:23;;;;;;;;;;;;;;;;;;5055500;28;19927;-73
2022/08/05 07:39:49;;;;;;;;;;;;;;;;;;5055481;28;19925;-73
2022/08/05 07:42:36;;;;;;;;;;;;;;;;;;5055227;28;20570;-73
2022/08/05 07:45:02;;;;;;;;;;;;;;;;;;5055094;28;19979;-73
2022/08/05 07:47:28;;;;;;;;;;;;;;;;;;5055176;28;19972;-72
2022/08/05 07:49:56;;;;;;;;;;;;;;;;;;5055316;28;19932;-72
2022/08/05 07:52:22;;;;;;;;;;;;;;;;;;5054707;28;20331;-73
2022/08/05 07:54:49;;;;;;;;;;;;;;;;;;5053979;28;19933;-72
2022/08/05 07:57:15;;;;;;;;;;;;;;;;;;5054873;28;20383;-72
2022/08/05 07:59:48;;;;;;;;;;;;;;;;;;5054792;28;20026;-72
2022/08/05 08:02:15;;;;;;;;;;;;;;;;;;5054869;28;19979;-73
2022/08/05 08:04:43;;;;;;;;;;;;;;;;;;5055071;28;19932;-72
2022/08/05 08:07:09;;;;;;;;;;;;;;;;;;5053520;28;19921;-72
2022/08/05 08:09:36;;;;;;;;;;;;;;;;;;5054881;28;19975;-73
2022/08/05 08:12:02;;;;;;;;;;;;;;;;;;5054696;28;19921;-73
2022/08/05 08:14:36;;;;;;;;;;;;;;;;;;5054817;28;20012;-72
2022/08/05 08:17:02;;;;;;;;;;;;;;;;;;5054893;28;19924;-73
2022/08/05 08:19:29;;;;;;;;;;;;;;;;;;5054738;28;19924;-73
2022/08/05 08:22:15;;;;;;;;;;;;;;;;;;5054497;28;19929;-73
2022/08/05 08:24:41;;;;;;;;;;;;;;;;;;5055044;28;19924;-73
2022/08/05 08:27:16;;;;;;;;;;;;;;;;;;5054464;28;20287;-73
2022/08/05 08:29:43;;;;;;;;;;;;;;;;;;5054571;28;19978;-73
2022/08/05 08:32:29;;;;;;;;;;;;;;;;;;5054667;28;20035;-73
2022/08/05 08:34:55;;;;;;;;;;;;;;;;;;5054495;28;19928;-73
2022/08/05 08:37:22;;;;;;;;;;;;;;;;;;5054219;28;20329;-73
2022/08/05 08:39:53;;;;;;;;;;;;;;;;;;5054135;28;19925;-73
2022/08/05 08:42:19;;;;;;;;;;;;;;;;;;5054390;28;19979;-73
2022/08/05 08:45:03;;;;;;;;;;;;;;;;;;5054258;28;20388;-73
2022/08/05 08:47:50;;;;;;;;;;;;;;;;;;5054100;28;19928;-72
2022/08/05 08:50:36;;;;;;;;;;;;;;;;;;5053882;28;19920;-73
2022/08/05 08:53:22;;;;;;;;;;;;;;;;;;5053844;28;19921;-73
2022/08/05 08:55:49;;;;;;;;;;;;;;;;;;5054113;28;19967;-73
2022/08/05 08:58:29;;;;;;;;;;;;;;;;;;5053749;28;20338;-73
2022/08/05 09:01:08;;;;;;;;;;;;;;;;;;5053794;28;20372;-72
2022/08/05 09:03:36;;;;;;;;;;;;;;;;;;5054020;28;19924;-73
2022/08/05 09:06:05;;;;;;;;;;;;;;;;;;5053720;28;19929;-73
2022/08/05 09:08:34;;;;;;;;;;;;;;;;;;5053601;28;19921;-73
2022/08/05 09:11:00;;;;;;;;;;;;;;;;;;5052567;28;19967;-73
2022/08/05 09:13:27;;;;;;;;;;;;;;;;;;5053547;28;20298;-73
2022/08/05 09:15:57;;;;;;;;;;;;;;;;;;5049023;28;19928;-73
2022/08/05 09:18:23;;;;;;;;;;;;;;;;;;5043185;28;19952;-73
2022/08/05 09:20:50;;;;;;;;;;;;;;;;;;5053352;28;20388;-73
2022/08/05 09:23:16;;;;;;;;;;;;;;;;;;5053415;28;19978;-73
2022/08/05 09:25:46;;;;;;;;;;;;;;;;;;5053283;28;20437;-72
2022/08/05 09:28:28;;;;;;;;;;;;;;;;;;5053441;28;19924;-72
2022/08/05 09:30:59;;;;;;;;;;;;;;;;;;5053464;28;19925;-72
2022/08/05 09:33:25;;;;;;;;;;;;;;;;;;5053314;28;20400;-72
2022/08/05 09:36:00;;;;;;;;;;;;;;;;;;5053090;28;19925;-72
2022/08/05 09:38:31;;;;;;;;;;;;;;;;;;5053258;28;19924;-72
2022/08/05 09:40:57;;;;;;;;;;;;;;;;;;5053022;28;20324;-72
2022/08/05 09:43:23;;;;;;;;;;;;;;;;;;5052925;28;19920;-72
2022/08/05 09:45:50;;;;;;;;;;;;;;;;;;5053090;28;19978;-72
2022/08/05 09:48:33;;;;;;;;;;;;;;;;;;5052849;28;19921;-72
2022/08/05 09:50:59;;;;;;;;;;;;;;;;;;5053061;28;19921;-72
2022/08/05 09:53:25;;;;;;;;;;;;;;;;;;5052383;28;19925;-72
2022/08/05 09:56:12;;;;;;;;;;;;;;;;;;5053024;28;20066;-72
2022/08/05 09:58:38;;;;;;;;;;;;;;;;;;5052795;28;19935;-72
2022/08/05 10:01:07;;;;;;;;;;;;;;;;;;5052648;28;19925;-72
2022/08/05 10:03:40;;;;;;;;;;;;;;;;;;5052445;28;19925;-72
2022/08/05 10:06:24;;;;;;;;;;;;;;;;;;5052961;28;20322;-72
2022/08/05 10:08:50;;;;;;;;;;;;;;;;;;5052647;28;19925;-72
2022/08/05 10:11:20;;;;;;;;;;;;;;;;;;5053062;28;19928;-72
2022/08/05 10:13:46;;;;;;;;;;;;;;;;;;5052522;28;19999;-72
2022/08/05 10:16:14;;;;;;;;;;;;;;;;;;5052754;28;19925;-72
2022/08/05 10:18:40;;;;;;;;;;;;;;;;;;5052362;28;20372;-72
2022/08/05 10:21:07;;;;;;;;;;;;;;;;;;5052604;28;19967;-72
2022/08/05 10:23:37;;;;;;;;;;;;;;;;;;5052688;28;19924;-72
2022/08/05 10:26:21;;;;;;;;;;;;;;;;;;5052169;28;20415;-72
2022/08/05 10:28:49;;;;;;;;;;;;;;;;;;5052331;28;19924;-72
2022/08/05 10:31:16;;;;;;;;;;;;;;;;;;5051586;28;20321;-71
2022/08/05 10:34:02;;;;;;;;;;;;;;;;;;5052368;28;19921;-72
2022/08/05 10:36:28;;;;;;;;;;;;;;;;;;5051936;28;20273;-72
2022/08/05 10:38:55;;;;;;;;;;;;;;;;;;5052073;28;19925;-72
2022/08/05 10:41:21;;;;;;;;;;;;;;;;;;5050779;28;19931;-71
2022/08/05 10:43:48;;;;;;;;;;;;;;;;;;5051970;28;19920;-72
2022/08/05 10:46:15;;;;;;;;;;;;;;;;;;5051958;28;19924;-72
2022/08/05 10:48:41;;;;;;;;;;;;;;;;;;5051948;28;19974;-72
2022/08/05 10:51:23;;;;;;;;;;;;;;;;;;5051933;28;19930;-72
2022/08/05 10:53:54;;;;;;;;;;;;;;;;;;5052065;28;19921;-72
2022/08/05 10:56:20;;;;;;;;;;;;;;;;;;5052185;28;19928;-72
2022/08/05 10:58:51;;;;;;;;;;;;;;;;;;5052104;28;19935;-72
2022/08/05 11:01:17;;;;;;;;;;;;;;;;;;5052176;28;19971;-72
2022/08/05 11:03:53;;;;;;;;;;;;;;;;;;5052067;28;19932;-72
2022/08/05 11:06:20;;;;;;;;;;;;;;;;;;5051809;28;19929;-72
2022/08/05 11:08:46;;;;;;;;;;;;;;;;;;5051570;28;19963;-72
2022/08/05 11:11:12;;;;;;;;;;;;;;;;;;5051868;28;19975;-72
2022/08/05 11:13:41;;;;;;;;;;;;;;;;;;5051650;28;19932;-72
2022/08/05 11:16:20;;;;;;;;;;;;;;;;;;5051987;28;19968;-72
2022/08/05 11:18:46;;;;;;;;;;;;;;;;;;5051883;28;19920;-72
2022/08/05 11:21:13;;;;;;;;;;;;;;;;;;5051903;28;19921;-72
2022/08/05 11:23:39;;;;;;;;;;;;;;;;;;5051475;28;20403;-72
2022/08/05 11:26:25;;;;;;;;;;;;;;;;;;5051543;28;20669;-71
2022/08/05 11:28:54;;;;;;;;;;;;;;;;;;5051458;28;19925;-71
2022/08/05 11:31:21;;;;;;;;;;;;;;;;;;5051472;28;20411;-71
2022/08/05 11:34:08;;;;;;;;;;;;;;;;;;5050669;28;19944;-72
2022/08/05 11:36:34;;;;;;;;;;;;;;;;;;5051332;28;20348;-71
2022/08/05 11:39:05;;;;;;;;;;;;;;;;;;5051794;28;19920;-71
2022/08/05 11:41:32;;;;;;;;;;;;;;;;;;5052684;28;19955;-71
2022/08/05 11:44:18;;;;;;;;;;;;;;;;;;5055207;28;19924;-71
2022/08/05 11:47:05;;;;;;;;;;;;;;;;;;5055351;28;19930;-72
2022/08/05 11:49:37;;;;;;;;;;;;;;;;;;5054194;28;19929;-71
2022/08/05 11:52:03;;;;;;;;;;;;;;;;;;5054681;28;20397;-72
2022/08/05 11:54:36;;;;;;;;;;;;;;;;;;5055288;28;19928;-72
2022/08/05 11:57:03;;;;;;;;;;;;;;;;;;5054899;28;20366;-72
2022/08/05 11:59:34;;;;;;;;;;;;;;;;;;5054906;28;19921;-71
2022/08/05 12:02:15;;;;;;;;;;;;;;;;;;5054863;28;19928;-71
2022/08/05 12:04:57;;;;;;;;;;;;;;;;;;5055006;28;19928;-71
2022/08/05 12:07:25;;;;;;;;;;;;;;;;;;5055063;28;19974;-72
2022/08/05 12:10:11;;;;;;;;;;;;;;;;;;5054643;28;19925;-72
2022/08/05 12:12:37;;;;;;;;;;;;;;;;;;5055019;28;19981;-72
2022/08/05 12:15:03;;;;;;;;;;;;;;;;;;5054989;28;19967;-72
2022/08/05 12:17:30;;;;;;;;;;;;;;;;;;5054919;28;19975;-72
2022/08/05 12:20:16;;;;;;;;;;;;;;;;;;5054854;28;20311;-72
2022/08/05 12:22:53;;;;;;;;;;;;;;;;;;5054518;28;19928;-72
2022/08/05 12:25:20;;;;;;;;;;;;;;;;;;5054466;28;19960;-71
2022/08/05 12:27:49;;;;;;;;;;;;;;;;;;5054564;28;19921;-71
2022/08/05 12:30:19;;;;;;;;;;;;;;;;;;5054347;28;19920;-72
2022/08/05 12:32:46;;;;;;;;;;;;;;;;;;5054531;28;19964;-71
2022/08/05 12:35:15;;;;;;;;;;;;;;;;;;5054278;28;20396;-72
2022/08/05 12:37:42;;;;;;;;;;;;;;;;;;5054473;28;19966;-71
2022/08/05 12:40:08;;;;;;;;;;;;;;;;;;5054341;28;19995;-72
2022/08/05 12:42:36;;;;;;;;;;;;;;;;;;5054449;28;19958;-71
2022/08/05 12:45:02;;;;;;;;;;;;;;;;;;5054036;28;20408;-71
2022/08/05 12:47:28;;;;;;;;;;;;;;;;;;5054396;28;19971;-71
2022/08/05 12:49:55;;;;;;;;;;;;;;;;;;5054024;28;20011;-71
2022/08/05 12:52:30;;;;;;;;;;;;;;;;;;5053763;28;20428;-72
2022/08/05 12:55:03;;;;;;;;;;;;;;;;;;5053628;28;19925;-72
2022/08/05 12:57:29;;;;;;;;;;;;;;;;;;5054074;28;19925;-71
2022/08/05 12:59:56;;;;;;;;;;;;;;;;;;5054011;28;19991;-71
2022/08/05 13:02:42;;;;;;;;;;;;;;;;;;5054107;28;19920;-72
2022/08/05 13:05:09;;;;;;;;;;;;;;;;;;5054083;28;19927;-71
2022/08/05 13:07:36;;;;;;;;;;;;;;;;;;5053942;28;19924;-71
2022/08/05 13:10:23;;;;;;;;;;;;;;;;;;5053488;28;20296;-72
2022/08/05 13:12:49;;;;;;;;;;;;;;;;;;5053566;28;19971;-72
2022/08/05 13:15:22;;;;;;;;;;;;;;;;;;5053572;28;20410;-71
2022/08/05 13:17:49;;;;;;;;;;;;;;;;;;5053639;28;19946;-71
2022/08/05 13:20:17;;;;;;;;;;;;;;;;;;5053431;28;19971;-72
2022/08/05 13:22:48;;;;;;;;;;;;;;;;;;5053411;28;19921;-72
2022/08/05 13:25:15;;;;;;;;;;;;;;;;;;5053854;28;19998;-72
2022/08/05 13:27:44;;;;;;;;;;;;;;;;;;5053211;28;20396;-72
2022/08/05 13:30:11;;;;;;;;;;;;;;;;;;5053174;28;19921;-72
2022/08/05 13:32:57;;;;;;;;;;;;;;;;;;5053104;28;19925;-71
2022/08/05 13:35:26;;;;;;;;;;;;;;;;;;5053204;28;19932;-72
2022/08/05 13:38:08;;;;;;;;;;;;;;;;;;5052965;28;19931;-72
2022/08/05 13:40:41;;;;;;;;;;;;;;;;;;5053424;28;20291;-71
2022/08/05 13:43:16;;;;;;;;;;;;;;;;;;5053182;28;19928;-71
2022/08/05 13:45:47;;;;;;;;;;;;;;;;;;5052962;28;19928;-72
2022/08/05 13:48:13;;;;;;;;;;;;;;;;;;5052994;28;19924;-72
2022/08/05 13:50:59;;;;;;;;;;;;;;;;;;5053069;28;19921;-71
2022/08/05 13:53:26;;;;;;;;;;;;;;;;;;5052661;28;19983;-72
2022/08/05 13:55:52;;;;;;;;;;;;;;;;;;5052764;28;19972;-72
2022/08/05 13:58:25;;;;;;;;;;;;;;;;;;5052736;28;20007;-72
2022/08/05 14:00:55;;;;;;;;;;;;;;;;;;5053058;28;19959;-72
2022/08/05 14:03:22;;;;;;;;;;;;;;;;;;5052667;28;20300;-72
2022/08/05 14:05:48;;;;;;;;;;;;;;;;;;5051692;28;19925;-72
2022/08/05 14:08:34;;;;;;;;;;;;;;;;;;5052707;28;19930;-72
2022/08/05 14:11:01;;;;;;;;;;;;;;;;;;5052465;28;19925;-71
2022/08/05 14:13:45;;;;;;;;;;;;;;;;;;5052494;28;20388;-71
2022/08/05 14:16:13;;;;;;;;;;;;;;;;;;5052611;28;19928;-71
2022/08/05 14:18:42;;;;;;;;;;;;;;;;;;5052682;28;19921;-71
2022/08/05 14:21:08;;;;;;;;;;;;;;;;;;5052212;28;20384;-71
2022/08/05 14:23:54;;;;;;;;;;;;;;;;;;5052156;28;19924;-71
2022/08/05 14:26:21;;;;;;;;;;;;;;;;;;5052514;28;19974;-71
2022/08/05 14:29:04;;;;;;;;;;;;;;;;;;5052359;28;19921;-71
2022/08/05 14:31:30;;;;;;;;;;;;;;;;;;5052139;28;20395;-72
2022/08/05 14:34:16;;;;;;;;;;;;;;;;;;5052055;28;20433;-71
2022/08/05 14:36:42;;;;;;;;;;;;;;;;;;5052618;28;19932;-72
2022/08/05 14:39:09;;;;;;;;;;;;;;;;;;5052260;28;19924;-72
2022/08/05 14:41:36;;;;;;;;;;;;;;;;;;5052313;28;19928;-72
2022/08/05 14:44:02;;;;;;;;;;;;;;;;;;5052359;28;20040;-71
2022/08/05 14:46:35;;;;;;;;;;;;;;;;;;5052332;28;20003;-72
2022/08/05 14:49:01;;;;;;;;;;;;;;;;;;5052098;28;19972;-72
2022/08/05 14:51:32;;;;;;;;;;;;;;;;;;5052315;28;19951;-72
2022/08/05 14:53:58;;;;;;;;;;;;;;;;;;5051706;28;19987;-71
2022/08/05 14:56:44;;;;;;;;;;;;;;;;;;5052192;28;19921;-72
2022/08/05 14:59:12;;;;;;;;;;;;;;;;;;5051792;28;19925;-72
2022/08/05 15:01:39;;;;;;;;;;;;;;;;;;5051849;28;20384;-72
2022/08/05 15:04:13;;;;;;;;;;;;;;;;;;5051825;28;20348;-72
2022/08/05 15:06:40;;;;;;;;;;;;;;;;;;5052094;28;19974;-72
2022/08/05 15:09:06;;;;;;;;;;;;;;;;;;5051766;28;19971;-72
2022/08/05 15:11:32;;;;;;;;;;;;;;;;;;5052014;28;19928;-71
2022/08/05 15:14:17;;;;;;;;;;;;;;;;;;5052088;28;19928;-72
2022/08/05 15:16:59;;;;;;;;;;;;;;;;;;5053637;28;20300;-72
2022/08/05 15:19:25;;;;;;;;;;;;;;;;;;5055669;28;19921;-72
2022/08/05 15:21:52;;;;;;;;;;;;;;;;;;5055885;28;19967;-72
2022/08/05 15:24:18;;;;;;;;;;;;;;;;;;5055586;28;19971;-71
2022/08/05 15:26:44;;;;;;;;;;;;;;;;;;5055861;28;19931;-72
2022/08/05 15:29:11;;;;;;;;;;;;;;;;;;5055446;28;20456;-71
2022/08/05 15:31:38;;;;;;;;;;;;;;;;;;5055566;28;19952;-72
2022/08/05 15:34:04;;;;;;;;;;;;;;;;;;5054233;28;20342;-71
2022/08/05 15:36:50;;;;;;;;;;;;;;;;;;5055266;28;19925;-72
2022/08/05 15:39:17;;;;;;;;;;;;;;;;;;5055940;28;19970;-72
2022/08/05 15:42:03;;;;;;;;;;;;;;;;;;5055554;28;19921;-72
2022/08/05 15:44:49;;;;;;;;;;;;;;;;;;5055587;28;19921;-72
2022/08/05 15:47:15;;;;;;;;;;;;;;;;;;5055162;28;19921;-72
2022/08/05 15:49:42;;;;;;;;;;;;;;;;;;5055451;28;19932;-71
2022/08/05 15:52:22;;;;;;;;;;;;;;;;;;5054876;28;20335;-72
2022/08/05 15:55:09;;;;;;;;;;;;;;;;;;5055319;28;19925;-72
2022/08/05 15:57:35;;;;;;;;;;;;;;;;;;5055103;28;19920;-72
2022/08/05 16:00:01;;;;;;;;;;;;;;;;;;5055245;28;19921;-72
2022/08/05 16:02:28;;;;;;;;;;;;;;;;;;5055213;28;19924;-72
2022/08/05 16:04:54;;;;;;;;;;;;;;;;;;5054897;28;19974;-72
2022/08/05 16:07:21;;;;;;;;;;;;;;;;;;5054827;28;20312;-71
2022/08/05 16:09:48;;;;;;;;;;;;;;;;;;5055090;28;20045;-72
2022/08/05 16:12:14;;;;;;;;;;;;;;;;;;5054686;28;20434;-73
2022/08/05 16:14:40;;;;;;;;;;;;;;;;;;5054764;28;19924;-72
2022/08/05 16:17:07;;;;;;;;;;;;;;;;;;5054957;28;19925;-73
2022/08/05 16:19:33;;;;;;;;;;;;;;;;;;5054808;28;19932;-72
2022/08/05 16:22:19;;;;;;;;;;;;;;;;;;5054736;28;20292;-72
2022/08/05 16:24:52;;;;;;;;;;;;;;;;;;5054531;28;20511;-72
2022/08/05 16:27:19;;;;;;;;;;;;;;;;;;5053311;28;19963;-72
2022/08/05 16:29:57;;;;;;;;;;;;;;;;;;5054068;28;19925;-72
2022/08/05 16:32:23;;;;;;;;;;;;;;;;;;5054398;28;20368;-71
2022/08/05 16:34:54;;;;;;;;;;;;;;;;;;5054284;28;19956;-71
2022/08/05 16:37:20;;;;;;;;;;;;;;;;;;5054197;28;19963;-72
2022/08/05 16:40:07;;;;;;;;;;;;;;;;;;5054452;28;19925;-71
2022/08/05 16:42:38;;;;;;;;;;;;;;;;;;5054251;28;19928;-72
2022/08/05 16:45:05;;;;;;;;;;;;;;;;;;5054448;28;19960;-73
2022/08/05 16:47:31;;;;;;;;;;;;;;;;;;5054366;28;19971;-72
2022/08/05 16:50:07;;;;;;;;;;;;;;;;;;5054253;28;19924;-72
2022/08/05 16:52:33;;;;;;;;;;;;;;;;;;5053822;28;19924;-72
2022/08/05 16:55:00;;;;;;;;;;;;;;;;;;5054388;28;19924;-71
2022/08/05 16:57:26;;;;;;;;;;;;;;;;;;5054127;28;19956;-71
2022/08/05 17:00:12;;;;;;;;;;;;;;;;;;5053948;28;19935;-72
2022/08/05 17:02:39;;;;;;;;;;;;;;;;;;5053802;28;19932;-72
2022/08/05 17:05:05;;;;;;;;;;;;;;;;;;5053798;28;19978;-71
2022/08/05 17:07:32;;;;;;;;;;;;;;;;;;5053637;28;19971;-71
2022/08/05 17:10:08;;;;;;;;;;;;;;;;;;5053857;28;19925;-71
2022/08/05 17:12:35;;;;;;;;;;;;;;;;;;5053821;28;19963;-71
2022/08/05 17:15:17;;;;;;;;;;;;;;;;;;5054061;28;19921;-71